Time;durP1;ratioP1;P1;durP2;ratioP2;P2;SDS_P1;SDS_P2;PMS_P1;PMS_P2;Temp;Humidity;BMP_temperature;BMP_pressure;BME280_temperature;BME280_humidity;BME280_pressure;Samples;Min_cycle;Max_cycle;Signal;HPM_P1;HPM_P2
2023/02/15 00:02:01;;;;;;;59.00;26.83;;;4.10;99.90;;;;;;4902207;29;20206;-79
2023/02/15 00:04:45;;;;;;;54.30;25.00;;;4.10;99.90;;;;;;4930637;29;20649;-81
2023/02/15 00:07:14;;;;;;;59.90;27.00;;;4.00;99.90;;;;;;4936587;29;20206;-81
2023/02/15 00:09:41;;;;;;;64.23;27.97;;;4.10;99.90;;;;;;4969680;28;20200;-85
2023/02/15 00:12:09;;;;;;;57.97;26.63;;;4.00;99.90;;;;;;4936905;29;20660;-85
2023/02/15 00:14:36;;;;;;;57.90;26.23;;;4.10;99.90;;;;;;4938328;29;20274;-87
2023/02/15 00:17:03;;;;;;;56.83;25.57;;;4.00;99.90;;;;;;4929730;29;20250;-76
2023/02/15 00:19:30;;;;;;;58.17;26.60;;;4.00;99.90;;;;;;4920236;29;20208;-75
2023/02/15 00:21:57;;;;;;;54.53;25.07;;;4.00;99.90;;;;;;4911088;29;20219;-75
2023/02/15 00:24:24;;;;;;;59.13;26.93;;;4.10;99.90;;;;;;4913369;29;20219;-76
2023/02/15 00:26:51;;;;;;;54.17;25.13;;;4.10;99.90;;;;;;4917574;29;20195;-75
2023/02/15 00:29:19;;;;;;;62.57;27.07;;;4.20;99.90;;;;;;4932876;29;20226;-76
2023/02/15 00:31:46;;;;;;;55.80;25.93;;;4.30;99.90;;;;;;4935559;29;20192;-75
2023/02/15 00:34:20;;;;;;;52.47;26.60;;;4.40;99.90;;;;;;4916736;29;20643;-75
2023/02/15 00:36:48;;;;;;;63.00;27.63;;;4.40;99.90;;;;;;4923412;29;20211;-76
2023/02/15 00:39:16;;;;;;;58.87;27.03;;;4.20;99.90;;;;;;4900950;29;20202;-78
2023/02/15 00:41:43;;;;;;;57.33;25.70;;;4.10;99.90;;;;;;4954034;28;20209;-77
2023/02/15 00:44:11;;;;;;;60.17;26.80;;;4.20;99.90;;;;;;4932864;29;20288;-76
2023/02/15 00:46:38;;;;;;;64.00;27.43;;;4.20;99.90;;;;;;4919871;29;20258;-77
2023/02/15 00:49:05;;;;;;;60.30;27.93;;;4.10;99.90;;;;;;4936302;29;20322;-78
2023/02/15 00:51:34;;;;;;;60.13;26.80;;;4.10;99.90;;;;;;4936942;29;20794;-78
2023/02/15 00:54:03;;;;;;;62.13;27.70;;;4.20;99.90;;;;;;4915992;29;20258;-76
2023/02/15 00:56:29;;;;;;;63.50;28.17;;;4.10;99.90;;;;;;4903928;29;20208;-77
2023/02/15 00:58:56;;;;;;;58.43;27.50;;;4.10;99.90;;;;;;4919756;29;20215;-75
2023/02/15 01:01:23;;;;;;;58.63;26.83;;;4.10;99.90;;;;;;4919262;29;20241;-75
2023/02/15 01:03:51;;;;;;;64.87;28.80;;;4.20;99.90;;;;;;4934983;29;20678;-75
2023/02/15 01:06:18;;;;;;;61.83;26.40;;;4.10;99.90;;;;;;4936299;29;20202;-77
2023/02/15 01:08:46;;;;;;;57.47;27.37;;;4.10;99.90;;;;;;4935353;29;20212;-74
2023/02/15 01:11:21;;;;;;;61.97;27.37;;;4.20;99.90;;;;;;4915975;29;20683;-75
2023/02/15 01:13:50;;;;;;;60.93;26.20;;;4.30;99.90;;;;;;4931773;29;20211;-75
2023/02/15 01:16:17;;;;;;;63.70;27.30;;;4.20;99.90;;;;;;4929329;29;20203;-75
2023/02/15 01:18:44;;;;;;;61.93;27.50;;;4.30;99.90;;;;;;4930989;29;20725;-71
2023/02/15 01:21:20;;;;;;;55.77;26.20;;;4.20;99.90;;;;;;4919399;29;20208;-70
2023/02/15 01:23:49;;;;;;;60.20;26.87;;;4.20;99.90;;;;;;4936097;29;20280;-77
2023/02/15 01:26:16;;;;;;;61.53;27.40;;;4.20;99.90;;;;;;4918123;29;20208;-73
2023/02/15 01:28:44;;;;;;;58.73;26.97;;;4.30;99.90;;;;;;4918545;29;20217;-71
2023/02/15 01:31:13;;;;;;;57.10;26.13;;;4.20;99.90;;;;;;4918543;29;20199;-82
2023/02/15 01:33:41;;;;;;;59.60;26.90;;;4.20;99.90;;;;;;4918672;29;20267;-75
2023/02/15 01:36:08;;;;;;;57.27;25.83;;;4.20;99.90;;;;;;4919060;29;20196;-81
2023/02/15 01:38:36;;;;;;;58.67;26.43;;;4.20;99.90;;;;;;4934845;29;20196;-80
2023/02/15 01:44:00;;;;;;;61.43;26.77;;;4.30;99.90;;;;;;4928236;29;20228;-74
2023/02/15 01:46:34;;;;;;;56.57;26.60;;;4.40;99.90;;;;;;4925132;29;20300;-80
2023/02/15 01:49:24;;;;;;;60.43;26.67;;;4.30;99.90;;;;;;4934698;29;20259;-73
2023/02/15 01:51:52;;;;;;;57.67;26.23;;;4.00;99.90;;;;;;4918593;29;20258;-79
2023/02/15 01:54:24;;;;;;;59.23;26.47;;;4.00;99.90;;;;;;4931083;29;20197;-82
2023/02/15 01:56:54;;;;;;;59.43;26.93;;;4.20;99.90;;;;;;4933043;29;20208;-83
2023/02/15 01:59:23;;;;;;;57.20;27.23;;;4.40;99.90;;;;;;4935881;29;20194;-76
2023/02/15 02:01:54;;;;;;;61.50;26.87;;;4.40;99.90;;;;;;4917576;29;20226;-79
2023/02/15 02:04:38;;;;;;;59.93;27.50;;;4.40;99.90;;;;;;4914815;29;20753;-77
2023/02/15 02:07:06;;;;;;;57.20;25.90;;;4.40;99.90;;;;;;4933170;29;20203;-72
2023/02/15 02:09:34;;;;;;;60.30;27.43;;;4.50;99.90;;;;;;4917317;29;20210;-72
2023/02/15 02:12:01;;;;;;;56.07;26.73;;;4.60;99.90;;;;;;4917498;29;20199;-75
2023/02/15 02:14:28;;;;;;;57.93;26.57;;;4.60;99.90;;;;;;4926372;29;20209;-78
2023/02/15 02:17:21;;;;;;;58.27;27.27;;;4.60;99.90;;;;;;4935787;29;20226;-82
2023/02/15 02:20:07;;;;;;;56.43;26.27;;;4.60;99.90;;;;;;4916619;29;20862;-83
2023/02/15 02:22:36;;;;;;;57.17;26.10;;;4.60;99.90;;;;;;4914536;29;20657;-73
2023/02/15 02:25:15;;;;;;;60.20;27.00;;;4.50;99.90;;;;;;4917410;29;20231;-74
2023/02/15 02:28:17;;;;;;;61.60;26.53;;;4.60;99.90;;;;;;4938232;29;20520;-78
2023/02/15 02:31:15;;;;;;;57.90;26.17;;;4.50;99.90;;;;;;4879566;29;20217;-77
2023/02/15 02:33:48;;;;;;;56.60;25.67;;;4.60;99.90;;;;;;4862880;29;20757;-79
2023/02/15 02:36:40;;;;;;;57.10;25.77;;;4.60;99.90;;;;;;4884593;29;20678;-77
2023/02/15 02:39:37;;;;;;;58.50;25.63;;;4.60;99.90;;;;;;4876075;29;20205;-82
2023/02/15 02:42:16;;;;;;;55.63;25.03;;;4.50;99.90;;;;;;4876166;29;20231;-79
2023/02/15 02:44:58;;;;;;;51.07;23.40;;;4.50;99.90;;;;;;4876588;29;20223;-84
2023/02/15 02:47:36;;;;;;;52.37;24.53;;;4.60;99.90;;;;;;4880129;29;20208;-84
2023/02/15 02:50:07;;;;;;;47.83;23.10;;;4.50;99.90;;;;;;4880209;29;20214;-83
2023/02/15 02:52:36;;;;;;;56.40;24.73;;;4.40;99.90;;;;;;4880445;29;20204;-73
2023/02/15 02:55:23;;;;;;;51.53;23.97;;;4.60;99.90;;;;;;4885336;29;20905;-84
2023/02/15 02:58:21;;;;;;;53.37;24.87;;;4.50;99.90;;;;;;4845670;29;20246;-82
2023/02/15 03:00:57;;;;;;;54.23;24.93;;;4.40;99.90;;;;;;4863695;29;20257;-82
2023/02/15 03:03:37;;;;;;;54.87;24.87;;;4.40;99.90;;;;;;4862577;29;20580;-81
2023/02/15 03:06:11;;;;;;;57.73;25.00;;;4.30;99.90;;;;;;4849658;29;20211;-81
2023/02/15 03:08:43;;;;;;;53.07;24.90;;;4.30;99.90;;;;;;4919491;29;20200;-84
2023/02/15 03:11:11;;;;;;;51.50;24.03;;;4.40;99.90;;;;;;4906533;29;20219;-83
2023/02/15 03:13:39;;;;;;;56.50;24.60;;;4.50;99.90;;;;;;4938082;29;20298;-85
2023/02/15 03:16:26;;;;;;;53.73;24.30;;;4.40;99.90;;;;;;4939279;29;20201;-92
2023/02/15 03:19:01;;;;;;;54.83;23.53;;;4.50;99.90;;;;;;4937810;29;20202;-85
2023/02/15 03:22:03;;;;;;;43.87;20.60;;;4.40;99.90;;;;;;4938594;29;20220;-80
2023/02/15 03:24:36;;;;;;;50.93;21.77;;;4.40;99.90;;;;;;4937905;29;20697;-85
2023/02/15 03:27:08;;;;;;;52.20;24.00;;;4.30;99.90;;;;;;4920978;29;20238;-89
2023/02/15 03:29:36;;;;;;;52.80;23.77;;;4.30;99.90;;;;;;4938367;29;20196;-81
2023/02/15 03:32:09;;;;;;;54.30;24.23;;;4.40;99.90;;;;;;4905716;29;20653;-84
2023/02/15 03:34:36;;;;;;;50.80;23.27;;;4.20;99.90;;;;;;4929317;29;20298;-83
2023/02/15 03:37:41;;;;;;;53.00;23.37;;;4.00;99.90;;;;;;4936742;29;20196;-82
2023/02/15 03:43:36;;;;;;;53.80;23.03;;;4.10;99.90;;;;;;4937890;29;20673;-82
2023/02/15 03:46:27;;;;;;;48.70;22.77;;;4.10;99.90;;;;;;4952679;29;20737;-81
2023/02/15 03:49:03;;;;;;;46.43;22.03;;;4.00;99.90;;;;;;4952552;28;20681;-81
2023/02/15 03:51:35;;;;;;;47.33;21.20;;;4.10;99.90;;;;;;4952697;29;20640;-81
2023/02/15 03:54:13;;;;;;;43.93;20.13;;;4.30;99.90;;;;;;4952856;29;20204;-88
2023/02/15 04:02:44;;;;;;;44.93;21.17;;;4.40;99.90;;;;;;4968616;28;20199;-94
2023/02/15 04:05:11;;;;;;;44.77;20.77;;;4.50;99.90;;;;;;4951967;29;20227;-93
2023/02/15 04:07:38;;;;;;;44.33;21.00;;;4.50;99.90;;;;;;4929222;29;20290;-83
2023/02/15 04:12:52;;;;;;;40.07;19.20;;;4.40;99.90;;;;;;4956566;29;20204;-74
2023/02/15 04:18:05;;;;;;;40.50;18.63;;;4.50;99.90;;;;;;4956137;29;20700;-73
2023/02/15 04:26:04;;;;;;;37.17;18.07;;;4.30;99.90;;;;;;4977953;28;20267;-78
2023/02/15 04:28:31;;;;;;;42.67;19.40;;;4.20;99.90;;;;;;4956697;29;20341;-90
2023/02/15 04:30:58;;;;;;;37.13;18.10;;;4.20;99.90;;;;;;4938829;29;20193;-88
2023/02/15 04:33:25;;;;;;;41.77;18.97;;;4.30;99.90;;;;;;4939966;29;20209;-83
2023/02/15 04:35:51;;;;;;;36.33;18.60;;;4.30;99.90;;;;;;4926414;29;20215;-92
2023/02/15 04:38:18;;;;;;;35.60;16.77;;;4.30;99.90;;;;;;4918276;29;20214;-85
2023/02/15 04:40:50;;;;;;;38.90;17.77;;;4.20;99.90;;;;;;4933497;29;20203;-87
2023/02/15 04:43:20;;;;;;;32.97;16.73;;;4.20;99.90;;;;;;4953214;29;20200;-84
2023/02/15 04:45:50;;;;;;;33.37;16.57;;;4.10;99.90;;;;;;4944546;29;20193;-88
2023/02/15 04:48:17;;;;;;;39.47;17.77;;;4.20;99.90;;;;;;4941016;29;20241;-91
2023/02/15 04:50:44;;;;;;;35.27;18.27;;;4.20;99.90;;;;;;4954651;29;20203;-86
2023/02/15 04:53:11;;;;;;;39.83;18.60;;;4.10;99.90;;;;;;4939775;29;20202;-90
2023/02/15 04:55:39;;;;;;;35.00;17.73;;;4.10;99.90;;;;;;4935124;29;20210;-87
2023/02/15 04:58:05;;;;;;;38.47;18.93;;;4.20;99.90;;;;;;4938289;29;20188;-84
2023/02/15 05:00:32;;;;;;;39.50;18.33;;;4.30;99.90;;;;;;4922625;29;20204;-91
2023/02/15 05:03:00;;;;;;;37.53;18.87;;;4.20;99.90;;;;;;4922552;29;20203;-91
2023/02/15 05:05:26;;;;;;;35.77;16.77;;;4.20;99.90;;;;;;4928002;29;20597;-91
2023/02/15 05:07:53;;;;;;;34.33;16.80;;;4.20;99.90;;;;;;4920328;29;20219;-87
2023/02/15 05:10:20;;;;;;;35.47;17.50;;;4.10;99.90;;;;;;4933344;29;20234;-88
2023/02/15 05:12:47;;;;;;;36.40;17.47;;;4.00;99.90;;;;;;4962101;29;20198;-77
2023/02/15 05:15:14;;;;;;;37.27;17.90;;;3.90;99.90;;;;;;4940144;29;20196;-92
2023/02/15 05:17:41;;;;;;;36.20;18.63;;;3.90;99.90;;;;;;4957060;29;20266;-75
2023/02/15 05:20:08;;;;;;;31.87;16.83;;;3.90;99.90;;;;;;4958891;29;20243;-75
2023/02/15 05:22:35;;;;;;;35.40;17.80;;;3.90;99.90;;;;;;4941444;29;20192;-76
2023/02/15 05:30:33;;;;;;;38.23;18.80;;;3.80;99.90;;;;;;4940197;29;20879;-92
2023/02/15 05:33:00;;;;;;;36.00;18.50;;;3.90;99.90;;;;;;4947050;29;20232;-93
2023/02/15 05:35:27;;;;;;;38.23;18.03;;;4.00;99.90;;;;;;4943210;29;20201;-92
2023/02/15 05:37:54;;;;;;;41.30;19.67;;;4.00;99.90;;;;;;4952422;29;20235;-84
2023/02/15 05:40:21;;;;;;;36.20;18.20;;;4.00;99.90;;;;;;4936399;29;20670;-91
2023/02/15 05:42:47;;;;;;;36.67;17.97;;;3.90;99.90;;;;;;4960479;29;20617;-88
2023/02/15 05:45:15;;;;;;;37.40;17.93;;;3.80;99.90;;;;;;4958592;28;20282;-90
2023/02/15 05:47:42;;;;;;;36.07;18.13;;;3.90;99.90;;;;;;4960563;28;20183;-92
2023/02/15 05:50:11;;;;;;;40.03;18.97;;;4.00;99.90;;;;;;4978490;28;20190;-90
2023/02/15 05:52:38;;;;;;;42.90;19.50;;;3.90;99.90;;;;;;4953889;29;20202;-93
2023/02/15 05:55:05;;;;;;;38.17;18.47;;;3.90;99.90;;;;;;4941623;29;20203;-90
2023/02/15 05:57:32;;;;;;;37.23;17.77;;;3.70;99.90;;;;;;4959512;28;20648;-89
2023/02/15 05:59:59;;;;;;;43.80;19.90;;;3.60;99.90;;;;;;4921858;29;20214;-89
2023/02/15 06:02:26;;;;;;;42.00;19.30;;;3.70;99.90;;;;;;4947486;29;20223;-92
2023/02/15 06:04:53;;;;;;;42.77;19.67;;;3.60;99.90;;;;;;4961341;29;20232;-91
2023/02/15 06:07:20;;;;;;;43.20;19.83;;;3.70;99.90;;;;;;4963171;29;20204;-92
2023/02/15 06:09:46;;;;;;;46.43;19.33;;;3.80;99.90;;;;;;4954219;29;20204;-90
2023/02/15 06:12:13;;;;;;;43.20;19.93;;;3.80;99.90;;;;;;4951953;29;20223;-88
2023/02/15 06:14:40;;;;;;;43.93;20.17;;;3.70;99.90;;;;;;4938839;29;20201;-87
2023/02/15 06:17:07;;;;;;;38.00;18.83;;;3.70;99.90;;;;;;4959834;29;20217;-90
2023/02/15 06:19:35;;;;;;;38.03;18.67;;;3.80;99.90;;;;;;4956912;28;20195;-94
2023/02/15 06:22:02;;;;;;;43.13;19.53;;;3.60;99.90;;;;;;4948134;29;20306;-94
2023/02/15 06:24:29;;;;;;;41.50;18.30;;;3.60;99.90;;;;;;4941199;29;20322;-84
2023/02/15 06:26:56;;;;;;;36.20;17.70;;;3.50;99.90;;;;;;4940116;29;20197;-86
2023/02/15 06:29:22;;;;;;;38.30;18.80;;;3.60;99.90;;;;;;4924484;29;20201;-86
2023/02/15 06:31:49;;;;;;;37.47;17.40;;;3.70;99.90;;;;;;4925983;29;20196;-80
2023/02/15 06:34:16;;;;;;;46.10;19.20;;;3.60;99.90;;;;;;4944059;29;20203;-88
2023/02/15 06:36:43;;;;;;;39.70;19.33;;;3.70;99.90;;;;;;4935542;29;20217;-76
2023/02/15 06:39:10;;;;;;;37.20;17.60;;;3.60;99.90;;;;;;4943578;29;20198;-86
2023/02/15 06:41:37;;;;;;;32.93;17.00;;;3.60;99.90;;;;;;4942639;29;20270;-80
2023/02/15 06:44:04;;;;;;;36.37;17.33;;;3.50;99.90;;;;;;4942404;29;20218;-77
2023/02/15 06:46:31;;;;;;;40.43;18.33;;;3.30;99.90;;;;;;4962967;29;20207;-80
2023/02/15 06:48:58;;;;;;;40.73;18.50;;;3.40;99.90;;;;;;4963169;28;20242;-81
2023/02/15 06:51:25;;;;;;;36.53;17.00;;;3.40;99.90;;;;;;4922745;29;20221;-74
2023/02/15 06:53:52;;;;;;;41.37;18.67;;;3.50;99.90;;;;;;4955283;28;20200;-85
2023/02/15 06:56:18;;;;;;;35.37;17.47;;;3.60;99.90;;;;;;4934305;29;20214;-78
2023/02/15 06:58:45;;;;;;;40.80;19.43;;;3.60;99.90;;;;;;4938911;29;20189;-79
2023/02/15 07:01:12;;;;;;;38.93;18.23;;;3.60;99.90;;;;;;4939209;29;20200;-83
2023/02/15 07:03:39;;;;;;;41.67;19.77;;;3.60;99.90;;;;;;4939315;29;20199;-86
2023/02/15 07:06:14;;;;;;;45.20;20.17;;;3.50;99.90;;;;;;4938702;29;20242;-79
2023/02/15 07:08:41;;;;;;;45.93;19.53;;;3.60;99.90;;;;;;4955556;28;20203;-77
2023/02/15 07:13:54;;;;;;;39.30;17.90;;;3.60;99.90;;;;;;4956271;28;20190;-83
2023/02/15 07:16:21;;;;;;;42.07;18.87;;;3.50;99.90;;;;;;4957998;29;20187;-81
2023/02/15 07:18:48;;;;;;;44.73;19.13;;;3.50;99.90;;;;;;4938262;29;20250;-83
2023/02/15 07:21:15;;;;;;;45.63;17.87;;;3.50;99.90;;;;;;4941041;29;20211;-80
2023/02/15 07:23:42;;;;;;;43.40;17.73;;;3.40;99.90;;;;;;4959847;29;20200;-81
2023/02/15 07:26:08;;;;;;;44.57;17.93;;;3.40;99.90;;;;;;4943561;29;20222;-75
2023/02/15 07:28:36;;;;;;;42.67;17.60;;;3.40;99.90;;;;;;4946934;29;20191;-77
2023/02/15 07:31:05;;;;;;;41.40;17.57;;;3.40;99.90;;;;;;4939712;29;20568;-79
2023/02/15 07:33:35;;;;;;;45.73;17.23;;;3.40;99.90;;;;;;4939057;29;20187;-79
2023/02/15 07:36:04;;;;;;;43.17;16.87;;;3.40;99.90;;;;;;4953533;28;20208;-73
2023/02/15 07:38:35;;;;;;;37.43;15.50;;;3.40;99.90;;;;;;4937264;29;20199;-80
2023/02/15 07:41:07;;;;;;;36.90;16.17;;;3.30;99.90;;;;;;4938584;29;20205;-82
2023/02/15 07:43:37;;;;;;;37.70;16.57;;;3.30;99.90;;;;;;4936710;29;20196;-78
2023/02/15 07:46:07;;;;;;;40.60;15.53;;;3.20;99.90;;;;;;4936166;29;20746;-73
2023/02/15 07:48:35;;;;;;;38.17;15.00;;;3.20;99.90;;;;;;4936200;29;20240;-72
2023/02/15 07:51:05;;;;;;;36.93;15.60;;;3.10;99.90;;;;;;4937431;29;20211;-82
2023/02/15 07:53:32;;;;;;;37.67;15.30;;;3.10;99.90;;;;;;4936451;29;20195;-81
2023/02/15 07:56:04;;;;;;;34.47;14.90;;;3.10;99.90;;;;;;4937329;29;20211;-83
2023/02/15 07:58:50;;;;;;;35.83;13.77;;;3.10;99.90;;;;;;4937889;29;20199;-84
2023/02/15 08:01:20;;;;;;;31.97;13.47;;;3.20;99.90;;;;;;4936794;29;20198;-84
2023/02/15 08:03:48;;;;;;;33.83;14.40;;;3.10;99.90;;;;;;4937692;29;20196;-84
2023/02/15 08:06:15;;;;;;;31.60;13.40;;;3.30;99.90;;;;;;4936900;29;20696;-81
2023/02/15 08:08:42;;;;;;;32.00;13.50;;;3.30;99.90;;;;;;4936862;29;20203;-82
2023/02/15 08:14:06;;;;;;;29.30;13.30;;;3.20;99.90;;;;;;4951995;29;20190;-79
2023/02/15 08:16:43;;;;;;;27.60;12.67;;;3.10;99.90;;;;;;4935652;29;20664;-82
2023/02/15 08:19:16;;;;;;;27.27;12.63;;;3.10;99.90;;;;;;4936161;29;20202;-88
2023/02/15 08:21:48;;;;;;;33.57;13.50;;;2.90;99.90;;;;;;4935417;29;20205;-80
2023/02/15 08:24:18;;;;;;;29.23;13.30;;;3.00;99.90;;;;;;4937005;29;20545;-83
2023/02/15 08:26:46;;;;;;;29.70;13.23;;;3.10;99.90;;;;;;4936046;29;20695;-83
2023/02/15 08:29:15;;;;;;;27.33;13.37;;;3.20;99.90;;;;;;4951655;29;20302;-80
2023/02/15 08:31:43;;;;;;;30.30;13.27;;;3.20;99.90;;;;;;4935411;29;20219;-82
2023/02/15 08:34:12;;;;;;;30.63;13.80;;;3.30;99.90;;;;;;4932956;29;20638;-82
2023/02/15 08:36:40;;;;;;;33.43;14.27;;;3.30;99.90;;;;;;4935229;29;20279;-82
2023/02/15 08:39:06;;;;;;;32.80;15.07;;;3.30;99.90;;;;;;4937280;29;20195;-81
2023/02/15 08:41:35;;;;;;;38.77;16.13;;;3.30;99.90;;;;;;4919697;29;20212;-81
2023/02/15 08:44:05;;;;;;;34.43;14.70;;;3.30;99.90;;;;;;4918832;29;20201;-74
2023/02/15 08:46:36;;;;;;;38.53;15.93;;;3.30;99.90;;;;;;4937126;29;20586;-80
2023/02/15 08:49:03;;;;;;;35.30;15.13;;;3.20;99.90;;;;;;4920507;29;20238;-81
2023/02/15 08:51:34;;;;;;;40.47;16.80;;;3.30;99.90;;;;;;4952165;29;20204;-82
2023/02/15 08:54:04;;;;;;;36.57;15.67;;;3.20;99.90;;;;;;4951581;29;20204;-78
2023/02/15 08:56:36;;;;;;;39.63;15.70;;;3.10;99.90;;;;;;4919499;29;20230;-80
2023/02/15 08:59:04;;;;;;;35.07;15.73;;;3.00;99.90;;;;;;4920148;29;20217;-78
2023/02/15 09:01:33;;;;;;;34.33;14.47;;;3.00;99.90;;;;;;4951720;29;20906;-80
2023/02/15 09:04:10;;;;;;;33.93;14.93;;;2.90;99.90;;;;;;4951010;29;20202;-76
2023/02/15 09:06:39;;;;;;;38.20;14.43;;;2.70;99.90;;;;;;4936273;29;20218;-77
2023/02/15 09:09:07;;;;;;;35.20;14.17;;;2.80;99.90;;;;;;4936941;29;20646;-80
2023/02/15 09:11:43;;;;;;;34.00;14.00;;;2.90;99.90;;;;;;4918831;29;20290;-81
2023/02/15 09:14:14;;;;;;;33.23;13.87;;;3.00;99.90;;;;;;4919970;29;20206;-82
2023/02/15 09:16:45;;;;;;;32.43;13.37;;;3.10;99.90;;;;;;4919653;29;20203;-81
2023/02/15 09:19:13;;;;;;;32.60;13.93;;;3.20;99.90;;;;;;4952609;29;20215;-79
2023/02/15 09:21:41;;;;;;;29.10;12.83;;;3.30;99.90;;;;;;4919091;29;20234;-80
2023/02/15 09:24:10;;;;;;;32.97;14.40;;;3.40;99.90;;;;;;4919676;29;20282;-82
2023/02/15 09:26:40;;;;;;;33.90;13.30;;;3.40;99.90;;;;;;4936553;29;20207;-82
2023/02/15 09:29:08;;;;;;;31.43;13.63;;;3.40;99.90;;;;;;4935278;29;20235;-86
2023/02/15 09:31:50;;;;;;;33.37;13.40;;;3.40;99.90;;;;;;4936642;29;20660;-82
2023/02/15 09:34:21;;;;;;;30.03;13.50;;;3.40;99.90;;;;;;4935837;29;20183;-74
2023/02/15 09:36:49;;;;;;;32.10;13.90;;;3.40;99.90;;;;;;4934501;29;20217;-76
2023/02/15 09:39:23;;;;;;;31.37;13.47;;;3.50;99.90;;;;;;4934648;29;20227;-80
2023/02/15 09:42:18;;;;;;;31.20;13.90;;;3.60;99.90;;;;;;4951164;29;20636;-83
2023/02/15 09:44:57;;;;;;;30.37;13.20;;;3.40;99.90;;;;;;4936100;29;20200;-79
2023/02/15 09:47:30;;;;;;;34.40;13.40;;;3.40;99.90;;;;;;4935101;29;20208;-81
2023/02/15 09:50:00;;;;;;;30.20;13.60;;;3.40;99.90;;;;;;4935611;29;20197;-84
2023/02/15 09:52:43;;;;;;;33.57;14.53;;;3.60;99.90;;;;;;4934449;29;20303;-83
2023/02/15 09:55:33;;;;;;;32.80;13.50;;;3.60;99.90;;;;;;4950029;28;20274;-83
2023/02/15 09:58:15;;;;;;;29.13;13.27;;;3.70;99.90;;;;;;4899429;29;20531;-78
2023/02/15 10:01:00;;;;;;;31.53;13.87;;;3.80;99.90;;;;;;4896220;29;20204;-84
2023/02/15 10:03:41;;;;;;;33.20;14.40;;;3.90;99.90;;;;;;4880297;29;20213;-78
2023/02/15 10:06:46;;;;;;;32.63;14.17;;;3.90;99.90;;;;;;4896062;29;20228;-84
2023/02/15 10:09:18;;;;;;;35.10;14.37;;;3.90;99.90;;;;;;4877410;29;20203;-84
2023/02/15 10:12:00;;;;;;;31.50;13.90;;;3.80;99.90;;;;;;4877374;29;20316;-78
2023/02/15 10:15:00;;;;;;;31.83;13.87;;;3.80;99.90;;;;;;4878297;29;20207;-84
2023/02/15 10:17:45;;;;;;;31.80;14.63;;;3.70;99.90;;;;;;4874273;29;20201;-83
2023/02/15 10:20:28;;;;;;;33.93;14.07;;;3.80;99.90;;;;;;4872049;29;20713;-82
2023/02/15 10:23:32;;;;;;;33.53;13.20;;;3.90;99.90;;;;;;4869776;29;20212;-80
2023/02/15 10:26:22;;;;;;;34.13;13.70;;;3.70;99.90;;;;;;4861145;29;20230;-78
2023/02/15 10:28:56;;;;;;;34.13;15.13;;;3.70;99.90;;;;;;4876287;29;20316;-79
2023/02/15 10:31:34;;;;;;;35.37;16.40;;;3.60;99.90;;;;;;4872228;29;20286;-71
2023/02/15 10:34:04;;;;;;;34.93;15.70;;;3.60;99.90;;;;;;4868525;29;20205;-76
2023/02/15 10:36:49;;;;;;;39.37;16.07;;;3.50;99.90;;;;;;4878098;29;20207;-74
2023/02/15 10:39:22;;;;;;;35.73;16.03;;;3.50;99.90;;;;;;4878210;29;20306;-75
2023/02/15 10:42:26;;;;;;;34.10;15.13;;;3.60;99.90;;;;;;4893859;29;20206;-78
2023/02/15 10:45:14;;;;;;;32.73;14.37;;;3.60;99.90;;;;;;4916435;29;20234;-74
2023/02/15 10:48:19;;;;;;;36.13;15.97;;;3.60;99.90;;;;;;4934409;29;20586;-78
2023/02/15 10:51:11;;;;;;;36.37;15.73;;;3.50;99.90;;;;;;4934592;29;20652;-78
2023/02/15 10:53:53;;;;;;;37.47;15.60;;;3.60;99.90;;;;;;4928874;29;20211;-81
2023/02/15 10:56:55;;;;;;;37.77;16.03;;;3.70;99.90;;;;;;4935786;29;20199;-85
2023/02/15 10:59:33;;;;;;;39.57;15.90;;;3.70;99.90;;;;;;4934749;29;20206;-80
2023/02/15 11:02:11;;;;;;;34.20;15.60;;;3.70;99.90;;;;;;4933848;29;20211;-82
2023/02/15 11:05:13;;;;;;;39.30;16.33;;;3.60;99.90;;;;;;4917966;29;20207;-75
2023/02/15 11:07:43;;;;;;;35.33;15.97;;;3.40;99.90;;;;;;4920147;29;20234;-79
2023/02/15 11:10:43;;;;;;;35.20;15.27;;;3.60;99.90;;;;;;4939940;29;20230;-76
2023/02/15 11:13:22;;;;;;;36.63;16.33;;;3.60;99.90;;;;;;4845156;29;20212;-78
2023/02/15 11:16:04;;;;;;;38.57;15.73;;;3.80;99.90;;;;;;4831324;29;20194;-84
2023/02/15 11:18:41;;;;;;;36.93;15.23;;;3.80;99.90;;;;;;4858347;29;20206;-80
2023/02/15 11:21:32;;;;;;;35.40;14.83;;;3.80;99.90;;;;;;4845402;29;20191;-85
2023/02/15 11:24:01;;;;;;;34.33;14.87;;;3.80;99.90;;;;;;4862237;29;20246;-84
2023/02/15 11:26:29;;;;;;;33.93;14.63;;;3.80;99.90;;;;;;4878491;29;20222;-89
2023/02/15 11:29:08;;;;;;;37.47;15.73;;;3.80;99.90;;;;;;4880312;29;20198;-83
2023/02/15 11:31:55;;;;;;;35.50;15.77;;;3.70;99.90;;;;;;4875171;29;20216;-78
2023/02/15 11:34:24;;;;;;;40.97;15.57;;;3.70;99.90;;;;;;4874084;29;20222;-85
2023/02/15 11:36:54;;;;;;;39.47;16.07;;;3.60;99.90;;;;;;4876837;29;20214;-78
2023/02/15 11:39:23;;;;;;;39.90;17.03;;;3.50;99.90;;;;;;4874293;29;20207;-79
2023/02/15 11:41:54;;;;;;;39.30;16.60;;;3.40;99.90;;;;;;4876079;29;20207;-81
2023/02/15 11:44:34;;;;;;;36.57;15.50;;;3.40;99.90;;;;;;4876669;29;20217;-80
2023/02/15 11:47:02;;;;;;;40.83;16.40;;;3.50;99.90;;;;;;4874071;29;20213;-75
2023/02/15 11:49:34;;;;;;;39.97;17.27;;;3.60;99.90;;;;;;4896249;29;20237;-81
2023/02/15 11:52:05;;;;;;;42.93;16.97;;;3.70;99.90;;;;;;4918733;29;20646;-76
2023/02/15 11:54:36;;;;;;;42.80;17.40;;;3.70;99.90;;;;;;4946424;29;20193;-79
2023/02/15 11:57:31;;;;;;;44.73;17.77;;;3.70;99.90;;;;;;4932255;29;20199;-77
2023/02/15 12:00:07;;;;;;;41.00;17.83;;;3.60;99.90;;;;;;4913074;29;20205;-81
2023/02/15 12:02:37;;;;;;;40.43;17.33;;;3.60;99.90;;;;;;4946790;29;20199;-81
2023/02/15 12:05:19;;;;;;;43.10;17.57;;;3.60;99.90;;;;;;4936439;29;20325;-76
2023/02/15 12:08:09;;;;;;;40.33;16.77;;;3.60;99.90;;;;;;4936296;29;20290;-79
2023/02/15 12:11:17;;;;;;;43.47;17.83;;;3.70;99.90;;;;;;4935537;29;20214;-76
2023/02/15 12:14:11;;;;;;;48.47;18.03;;;3.70;99.90;;;;;;4861740;29;20300;-80
2023/02/15 12:16:48;;;;;;;44.27;18.47;;;3.70;99.90;;;;;;4859526;29;20263;-74
2023/02/15 12:19:37;;;;;;;41.27;17.60;;;3.80;99.90;;;;;;4876615;29;20589;-73
2023/02/15 12:22:17;;;;;;;47.57;18.97;;;3.60;99.90;;;;;;4875509;29;20578;-72
2023/02/15 12:24:47;;;;;;;47.73;18.50;;;3.70;99.90;;;;;;4860995;29;20206;-72
2023/02/15 12:27:13;;;;;;;45.07;17.40;;;3.80;99.90;;;;;;4860377;29;20232;-72
2023/02/15 12:29:44;;;;;;;45.63;18.30;;;3.70;99.90;;;;;;4855161;29;20218;-71
2023/02/15 12:32:34;;;;;;;46.13;18.37;;;3.80;99.90;;;;;;4867732;29;20213;-71
2023/02/15 12:35:18;;;;;;;47.47;17.80;;;3.70;99.90;;;;;;4860252;29;20618;-73
2023/02/15 12:38:15;;;;;;;42.83;18.13;;;3.70;99.90;;;;;;4854765;29;20569;-72
2023/02/15 12:40:57;;;;;;;42.23;18.20;;;3.60;99.90;;;;;;4845358;29;20239;-69
2023/02/15 12:43:35;;;;;;;42.70;17.30;;;3.50;99.90;;;;;;4855822;29;20204;-79
2023/02/15 12:46:25;;;;;;;41.47;17.27;;;3.50;99.90;;;;;;4860237;29;20225;-86
2023/02/15 12:49:09;;;;;;;40.30;17.03;;;3.50;99.90;;;;;;4865833;29;20238;-92
2023/02/15 12:51:58;;;;;;;39.00;16.70;;;3.40;99.90;;;;;;4912911;29;20218;-89
2023/02/15 12:54:30;;;;;;;43.90;17.47;;;3.60;99.90;;;;;;4937654;29;20679;-87
2023/02/15 12:56:58;;;;;;;43.73;17.90;;;3.60;99.90;;;;;;4935604;29;20196;-85
2023/02/15 12:59:25;;;;;;;46.73;18.77;;;3.60;99.90;;;;;;4934319;29;20667;-76
2023/02/15 13:01:55;;;;;;;41.57;17.70;;;3.70;99.90;;;;;;4934218;29;20208;-77
2023/02/15 13:04:29;;;;;;;43.60;18.37;;;3.60;99.90;;;;;;4938793;29;20285;-75
2023/02/15 13:06:59;;;;;;;39.90;17.83;;;3.70;99.90;;;;;;4949875;29;20250;-78
2023/02/15 13:09:30;;;;;;;44.33;18.10;;;3.60;99.90;;;;;;4933664;29;20195;-75
2023/02/15 13:12:16;;;;;;;42.90;18.37;;;3.50;99.90;;;;;;4937548;29;20231;-90
2023/02/15 13:14:46;;;;;;;46.40;17.83;;;3.50;99.90;;;;;;4943977;29;20660;-82
2023/02/15 13:17:17;;;;;;;41.93;17.93;;;3.60;99.90;;;;;;4925135;29;20251;-77
2023/02/15 13:19:54;;;;;;;44.23;16.57;;;3.70;99.90;;;;;;4936712;29;20215;-76
2023/02/15 13:22:41;;;;;;;44.33;18.63;;;3.80;99.90;;;;;;4933746;29;20670;-82
2023/02/15 13:25:34;;;;;;;44.00;17.83;;;3.70;99.90;;;;;;4932120;29;20688;-84
2023/02/15 13:28:03;;;;;;;49.47;19.10;;;3.60;99.90;;;;;;4924346;29;20205;-81
2023/02/15 13:30:36;;;;;;;47.40;18.87;;;3.60;99.90;;;;;;4942873;28;20204;-79
2023/02/15 13:33:33;;;;;;;45.47;18.17;;;3.50;99.90;;;;;;4939150;29;20187;-78
2023/02/15 13:36:07;;;;;;;44.00;18.80;;;3.60;99.90;;;;;;4937535;29;20198;-87
2023/02/15 13:38:50;;;;;;;46.07;19.93;;;3.70;99.90;;;;;;4953493;28;20199;-79
2023/02/15 13:41:26;;;;;;;45.93;19.67;;;3.80;99.90;;;;;;4918637;29;20567;-77
2023/02/15 13:44:22;;;;;;;48.93;19.73;;;3.70;99.90;;;;;;4931292;29;20227;-79